sensor_id;sensor_type;location;lat;lon;timestamp;P1;durP1;ratioP1;P2;durP2;ratioP2
49139;SDS011;34959;49.310;8.646;2023-08-20T00:00:17;8.93;;;6.18;;
49139;SDS011;34959;49.310;8.646;2023-08-20T00:02:44;10.45;;;6.28;;
49139;SDS011;34959;49.310;8.646;2023-08-20T00:05:11;8.57;;;5.50;;
49139;SDS011;34959;49.310;8.646;2023-08-20T00:07:37;8.65;;;5.90;;
49139;SDS011;34959;49.310;8.646;2023-08-20T00:10:03;13.32;;;6.38;;
49139;SDS011;34959;49.310;8.646;2023-08-20T00:12:32;7.35;;;5.93;;
49139;SDS011;34959;49.310;8.646;2023-08-20T00:14:58;8.00;;;5.63;;
49139;SDS011;34959;49.310;8.646;2023-08-20T00:17:30;9.27;;;5.88;;
49139;SDS011;34959;49.310;8.646;2023-08-20T00:19:56;9.02;;;5.63;;
49139;SDS011;34959;49.310;8.646;2023-08-20T00:22:22;11.40;;;6.13;;
49139;SDS011;34959;49.310;8.646;2023-08-20T00:24:48;10.60;;;5.65;;
49139;SDS011;34959;49.310;8.646;2023-08-20T00:27:14;9.60;;;6.00;;
49139;SDS011;34959;49.310;8.646;2023-08-20T00:29:39;9.68;;;5.13;;
49139;SDS011;34959;49.310;8.646;2023-08-20T00:32:05;8.63;;;5.57;;
49139;SDS011;34959;49.310;8.646;2023-08-20T00:34:30;14.20;;;5.72;;
49139;SDS011;34959;49.310;8.646;2023-08-20T00:36:56;9.32;;;5.45;;
49139;SDS011;34959;49.310;8.646;2023-08-20T00:39:21;7.63;;;4.97;;
49139;SDS011;34959;49.310;8.646;2023-08-20T00:41:47;11.13;;;5.55;;
49139;SDS011;34959;49.310;8.646;2023-08-20T00:44:12;10.80;;;5.00;;
49139;SDS011;34959;49.310;8.646;2023-08-20T00:46:38;10.48;;;4.68;;
49139;SDS011;34959;49.310;8.646;2023-08-20T00:49:03;6.30;;;5.00;;
49139;SDS011;34959;49.310;8.646;2023-08-20T00:51:32;7.72;;;4.93;;
49139;SDS011;34959;49.310;8.646;2023-08-20T00:53:58;8.20;;;4.60;;
49139;SDS011;34959;49.310;8.646;2023-08-20T00:56:23;6.88;;;4.97;;
49139;SDS011;34959;49.310;8.646;2023-08-20T00:58:49;9.65;;;5.15;;
49139;SDS011;34959;49.310;8.646;2023-08-20T01:01:14;6.07;;;4.50;;
49139;SDS011;34959;49.310;8.646;2023-08-20T01:03:40;7.93;;;4.90;;
49139;SDS011;34959;49.310;8.646;2023-08-20T01:06:09;7.40;;;4.97;;
49139;SDS011;34959;49.310;8.646;2023-08-20T01:08:39;7.93;;;5.07;;
49139;SDS011;34959;49.310;8.646;2023-08-20T01:11:10;8.07;;;4.90;;
49139;SDS011;34959;49.310;8.646;2023-08-20T01:13:38;8.10;;;5.03;;
49139;SDS011;34959;49.310;8.646;2023-08-20T01:16:03;7.93;;;5.00;;
49139;SDS011;34959;49.310;8.646;2023-08-20T01:18:28;9.75;;;4.90;;
49139;SDS011;34959;49.310;8.646;2023-08-20T01:21:37;9.80;;;5.18;;
49139;SDS011;34959;49.310;8.646;2023-08-20T01:29:47;7.28;;;4.97;;
49139;SDS011;34959;49.310;8.646;2023-08-20T01:32:14;7.78;;;4.70;;
49139;SDS011;34959;49.310;8.646;2023-08-20T01:34:44;10.52;;;5.22;;
49139;SDS011;34959;49.310;8.646;2023-08-20T01:37:10;9.75;;;5.07;;
49139;SDS011;34959;49.310;8.646;2023-08-20T01:39:36;6.97;;;4.95;;
49139;SDS011;34959;49.310;8.646;2023-08-20T01:42:01;6.55;;;4.55;;
49139;SDS011;34959;49.310;8.646;2023-08-20T01:44:27;12.55;;;4.90;;
49139;SDS011;34959;49.310;8.646;2023-08-20T01:46:52;7.93;;;4.90;;
49139;SDS011;34959;49.310;8.646;2023-08-20T01:49:18;5.93;;;4.68;;
49139;SDS011;34959;49.310;8.646;2023-08-20T01:51:43;8.80;;;5.00;;
49139;SDS011;34959;49.310;8.646;2023-08-20T01:54:08;7.65;;;4.20;;
49139;SDS011;34959;49.310;8.646;2023-08-20T01:56:34;7.03;;;4.80;;
49139;SDS011;34959;49.310;8.646;2023-08-20T01:58:59;7.15;;;5.07;;
49139;SDS011;34959;49.310;8.646;2023-08-20T02:01:25;14.05;;;5.45;;
49139;SDS011;34959;49.310;8.646;2023-08-20T02:03:50;8.13;;;5.05;;
49139;SDS011;34959;49.310;8.646;2023-08-20T02:06:15;7.55;;;5.10;;
49139;SDS011;34959;49.310;8.646;2023-08-20T02:08:41;6.75;;;4.43;;
49139;SDS011;34959;49.310;8.646;2023-08-20T02:11:06;7.68;;;4.63;;
49139;SDS011;34959;49.310;8.646;2023-08-20T02:13:32;10.60;;;4.82;;
49139;SDS011;34959;49.310;8.646;2023-08-20T02:16:00;9.20;;;5.30;;
49139;SDS011;34959;49.310;8.646;2023-08-20T02:18:27;11.25;;;4.93;;
49139;SDS011;34959;49.310;8.646;2023-08-20T02:20:53;5.30;;;4.47;;
49139;SDS011;34959;49.310;8.646;2023-08-20T02:23:18;7.25;;;4.97;;
49139;SDS011;34959;49.310;8.646;2023-08-20T02:25:44;7.35;;;4.88;;
49139;SDS011;34959;49.310;8.646;2023-08-20T02:28:09;8.85;;;4.75;;
49139;SDS011;34959;49.310;8.646;2023-08-20T02:30:45;6.20;;;4.80;;
49139;SDS011;34959;49.310;8.646;2023-08-20T02:33:10;7.35;;;4.75;;
49139;SDS011;34959;49.310;8.646;2023-08-20T02:35:36;11.80;;;5.28;;
49139;SDS011;34959;49.310;8.646;2023-08-20T02:38:02;6.88;;;5.07;;
49139;SDS011;34959;49.310;8.646;2023-08-20T02:40:28;8.77;;;5.20;;
49139;SDS011;34959;49.310;8.646;2023-08-20T02:42:53;9.00;;;4.90;;
49139;SDS011;34959;49.310;8.646;2023-08-20T02:45:18;5.43;;;4.43;;
49139;SDS011;34959;49.310;8.646;2023-08-20T02:47:44;8.05;;;4.95;;
49139;SDS011;34959;49.310;8.646;2023-08-20T02:50:09;6.47;;;4.68;;
49139;SDS011;34959;49.310;8.646;2023-08-20T02:52:35;8.13;;;5.25;;
49139;SDS011;34959;49.310;8.646;2023-08-20T02:55:00;6.40;;;4.68;;
49139;SDS011;34959;49.310;8.646;2023-08-20T02:57:26;8.82;;;5.00;;
49139;SDS011;34959;49.310;8.646;2023-08-20T02:59:51;6.45;;;4.72;;
49139;SDS011;34959;49.310;8.646;2023-08-20T03:02:16;7.10;;;4.82;;
49139;SDS011;34959;49.310;8.646;2023-08-20T03:04:42;7.53;;;5.00;;
49139;SDS011;34959;49.310;8.646;2023-08-20T03:07:08;7.88;;;4.63;;
49139;SDS011;34959;49.310;8.646;2023-08-20T03:09:33;8.90;;;4.70;;
49139;SDS011;34959;49.310;8.646;2023-08-20T03:11:58;8.32;;;5.20;;
49139;SDS011;34959;49.310;8.646;2023-08-20T03:14:24;6.15;;;4.47;;
49139;SDS011;34959;49.310;8.646;2023-08-20T03:16:49;8.40;;;4.80;;
49139;SDS011;34959;49.310;8.646;2023-08-20T03:19:15;12.05;;;4.78;;
49139;SDS011;34959;49.310;8.646;2023-08-20T03:21:41;8.95;;;4.63;;
49139;SDS011;34959;49.310;8.646;2023-08-20T03:24:06;10.07;;;4.63;;
49139;SDS011;34959;49.310;8.646;2023-08-20T03:26:32;8.85;;;4.97;;
49139;SDS011;34959;49.310;8.646;2023-08-20T03:28:58;9.00;;;4.75;;
49139;SDS011;34959;49.310;8.646;2023-08-20T03:31:24;10.02;;;5.15;;
49139;SDS011;34959;49.310;8.646;2023-08-20T03:33:50;12.10;;;5.15;;
49139;SDS011;34959;49.310;8.646;2023-08-20T03:36:15;7.60;;;4.80;;
49139;SDS011;34959;49.310;8.646;2023-08-20T03:38:40;8.45;;;4.85;;
49139;SDS011;34959;49.310;8.646;2023-08-20T03:41:06;12.73;;;5.10;;
49139;SDS011;34959;49.310;8.646;2023-08-20T03:43:31;7.38;;;4.65;;
49139;SDS011;34959;49.310;8.646;2023-08-20T03:45:57;8.32;;;4.60;;
49139;SDS011;34959;49.310;8.646;2023-08-20T03:48:22;8.02;;;5.10;;
49139;SDS011;34959;49.310;8.646;2023-08-20T03:50:47;9.32;;;5.05;;
49139;SDS011;34959;49.310;8.646;2023-08-20T03:53:13;7.30;;;4.88;;
49139;SDS011;34959;49.310;8.646;2023-08-20T03:55:38;7.78;;;5.05;;
49139;SDS011;34959;49.310;8.646;2023-08-20T03:58:04;8.65;;;4.90;;
49139;SDS011;34959;49.310;8.646;2023-08-20T04:00:29;7.47;;;5.10;;
49139;SDS011;34959;49.310;8.646;2023-08-20T04:02:54;8.30;;;4.90;;
49139;SDS011;34959;49.310;8.646;2023-08-20T04:05:20;7.25;;;5.05;;
49139;SDS011;34959;49.310;8.646;2023-08-20T04:07:45;6.72;;;4.80;;
49139;SDS011;34959;49.310;8.646;2023-08-20T04:10:11;8.15;;;4.97;;
49139;SDS011;34959;49.310;8.646;2023-08-20T04:12:36;7.43;;;5.13;;
49139;SDS011;34959;49.310;8.646;2023-08-20T04:15:02;11.15;;;5.10;;
49139;SDS011;34959;49.310;8.646;2023-08-20T04:17:28;13.15;;;5.18;;
49139;SDS011;34959;49.310;8.646;2023-08-20T04:19:53;9.32;;;5.38;;
49139;SDS011;34959;49.310;8.646;2023-08-20T04:22:18;8.43;;;5.18;;
49139;SDS011;34959;49.310;8.646;2023-08-20T04:24:44;5.95;;;4.60;;
49139;SDS011;34959;49.310;8.646;2023-08-20T04:27:09;6.28;;;4.80;;
49139;SDS011;34959;49.310;8.646;2023-08-20T04:29:34;8.52;;;4.90;;
49139;SDS011;34959;49.310;8.646;2023-08-20T04:32:00;8.95;;;5.43;;
49139;SDS011;34959;49.310;8.646;2023-08-20T04:34:25;9.02;;;5.80;;
49139;SDS011;34959;49.310;8.646;2023-08-20T04:36:51;7.15;;;4.80;;
49139;SDS011;34959;49.310;8.646;2023-08-20T04:39:17;10.43;;;5.40;;
49139;SDS011;34959;49.310;8.646;2023-08-20T04:41:43;8.25;;;5.55;;
49139;SDS011;34959;49.310;8.646;2023-08-20T04:44:08;8.73;;;5.30;;
49139;SDS011;34959;49.310;8.646;2023-08-20T04:46:34;8.02;;;5.35;;
49139;SDS011;34959;49.310;8.646;2023-08-20T04:48:59;8.50;;;6.07;;
49139;SDS011;34959;49.310;8.646;2023-08-20T04:51:25;7.22;;;5.30;;
49139;SDS011;34959;49.310;8.646;2023-08-20T04:53:50;7.80;;;5.40;;
49139;SDS011;34959;49.310;8.646;2023-08-20T04:56:16;6.63;;;4.95;;
49139;SDS011;34959;49.310;8.646;2023-08-20T04:58:41;8.15;;;5.28;;
49139;SDS011;34959;49.310;8.646;2023-08-20T05:01:06;7.30;;;5.53;;
49139;SDS011;34959;49.310;8.646;2023-08-20T05:03:33;6.97;;;5.03;;
49139;SDS011;34959;49.310;8.646;2023-08-20T05:05:59;7.78;;;5.03;;
49139;SDS011;34959;49.310;8.646;2023-08-20T05:08:24;6.93;;;4.90;;
49139;SDS011;34959;49.310;8.646;2023-08-20T05:10:50;12.70;;;5.53;;
49139;SDS011;34959;49.310;8.646;2023-08-20T05:13:16;9.38;;;5.63;;
49139;SDS011;34959;49.310;8.646;2023-08-20T05:15:41;8.13;;;5.40;;
49139;SDS011;34959;49.310;8.646;2023-08-20T05:18:07;7.82;;;5.65;;
49139;SDS011;34959;49.310;8.646;2023-08-20T05:20:32;6.30;;;5.57;;
49139;SDS011;34959;49.310;8.646;2023-08-20T05:22:58;9.15;;;5.07;;
49139;SDS011;34959;49.310;8.646;2023-08-20T05:25:23;9.77;;;5.75;;
49139;SDS011;34959;49.310;8.646;2023-08-20T05:27:48;11.52;;;6.07;;
49139;SDS011;34959;49.310;8.646;2023-08-20T05:30:14;9.25;;;5.93;;
49139;SDS011;34959;49.310;8.646;2023-08-20T05:32:39;8.60;;;5.57;;
49139;SDS011;34959;49.310;8.646;2023-08-20T05:35:05;8.85;;;6.05;;
49139;SDS011;34959;49.310;8.646;2023-08-20T05:37:31;9.13;;;6.35;;
49139;SDS011;34959;49.310;8.646;2023-08-20T05:39:56;7.13;;;6.18;;
49139;SDS011;34959;49.310;8.646;2023-08-20T05:42:21;12.32;;;6.82;;
49139;SDS011;34959;49.310;8.646;2023-08-20T05:44:47;13.43;;;6.95;;
49139;SDS011;34959;49.310;8.646;2023-08-20T05:47:12;8.38;;;6.13;;
49139;SDS011;34959;49.310;8.646;2023-08-20T05:49:37;10.43;;;6.05;;
49139;SDS011;34959;49.310;8.646;2023-08-20T05:52:03;9.00;;;6.15;;
49139;SDS011;34959;49.310;8.646;2023-08-20T05:54:29;11.77;;;6.13;;
49139;SDS011;34959;49.310;8.646;2023-08-20T05:56:54;7.78;;;5.60;;
49139;SDS011;34959;49.310;8.646;2023-08-20T05:59:19;9.73;;;5.93;;
49139;SDS011;34959;49.310;8.646;2023-08-20T06:01:45;9.38;;;5.75;;
49139;SDS011;34959;49.310;8.646;2023-08-20T06:04:10;8.30;;;5.13;;
49139;SDS011;34959;49.310;8.646;2023-08-20T06:06:35;8.48;;;5.78;;
49139;SDS011;34959;49.310;8.646;2023-08-20T06:09:01;9.52;;;5.65;;
49139;SDS011;34959;49.310;8.646;2023-08-20T06:11:26;10.23;;;5.80;;
49139;SDS011;34959;49.310;8.646;2023-08-20T06:13:52;7.30;;;5.80;;
49139;SDS011;34959;49.310;8.646;2023-08-20T06:16:17;9.65;;;5.50;;
49139;SDS011;34959;49.310;8.646;2023-08-20T06:18:43;9.43;;;5.38;;
49139;SDS011;34959;49.310;8.646;2023-08-20T06:21:08;8.63;;;5.55;;
49139;SDS011;34959;49.310;8.646;2023-08-20T06:23:33;9.77;;;5.80;;
49139;SDS011;34959;49.310;8.646;2023-08-20T06:25:59;9.13;;;5.75;;
49139;SDS011;34959;49.310;8.646;2023-08-20T06:28:24;8.20;;;5.57;;
49139;SDS011;34959;49.310;8.646;2023-08-20T06:30:50;9.10;;;5.72;;
49139;SDS011;34959;49.310;8.646;2023-08-20T06:33:15;8.30;;;5.63;;
49139;SDS011;34959;49.310;8.646;2023-08-20T06:35:41;8.60;;;6.00;;
49139;SDS011;34959;49.310;8.646;2023-08-20T06:38:07;8.63;;;5.78;;
49139;SDS011;34959;49.310;8.646;2023-08-20T06:40:32;8.05;;;5.32;;
49139;SDS011;34959;49.310;8.646;2023-08-20T06:42:58;8.90;;;5.35;;
49139;SDS011;34959;49.310;8.646;2023-08-20T06:45:23;10.60;;;5.93;;
49139;SDS011;34959;49.310;8.646;2023-08-20T06:47:49;10.95;;;6.25;;
49139;SDS011;34959;49.310;8.646;2023-08-20T06:50:14;8.00;;;6.05;;
49139;SDS011;34959;49.310;8.646;2023-08-20T06:52:40;9.18;;;5.75;;
49139;SDS011;34959;49.310;8.646;2023-08-20T06:55:05;10.23;;;5.43;;
49139;SDS011;34959;49.310;8.646;2023-08-20T06:57:31;11.23;;;5.75;;
49139;SDS011;34959;49.310;8.646;2023-08-20T06:59:56;9.98;;;6.10;;
49139;SDS011;34959;49.310;8.646;2023-08-20T07:02:22;11.73;;;6.20;;
49139;SDS011;34959;49.310;8.646;2023-08-20T07:04:47;11.45;;;5.60;;
49139;SDS011;34959;49.310;8.646;2023-08-20T07:07:13;11.45;;;6.68;;
49139;SDS011;34959;49.310;8.646;2023-08-20T07:09:40;8.00;;;6.22;;
49139;SDS011;34959;49.310;8.646;2023-08-20T07:12:05;8.32;;;6.18;;
49139;SDS011;34959;49.310;8.646;2023-08-20T07:14:31;10.18;;;6.38;;
49139;SDS011;34959;49.310;8.646;2023-08-20T07:16:56;12.23;;;5.97;;
49139;SDS011;34959;49.310;8.646;2023-08-20T07:19:21;8.93;;;6.05;;
49139;SDS011;34959;49.310;8.646;2023-08-20T07:21:47;9.18;;;6.10;;
49139;SDS011;34959;49.310;8.646;2023-08-20T07:24:12;8.48;;;5.18;;
49139;SDS011;34959;49.310;8.646;2023-08-20T07:26:38;9.20;;;5.55;;
49139;SDS011;34959;49.310;8.646;2023-08-20T07:29:03;10.27;;;5.65;;
49139;SDS011;34959;49.310;8.646;2023-08-20T07:31:30;12.50;;;5.53;;
49139;SDS011;34959;49.310;8.646;2023-08-20T07:33:57;7.97;;;5.38;;
49139;SDS011;34959;49.310;8.646;2023-08-20T07:36:24;7.25;;;5.50;;
49139;SDS011;34959;49.310;8.646;2023-08-20T07:38:51;10.85;;;5.60;;
49139;SDS011;34959;49.310;8.646;2023-08-20T07:41:17;6.63;;;5.50;;
49139;SDS011;34959;49.310;8.646;2023-08-20T07:43:44;9.48;;;5.57;;
49139;SDS011;34959;49.310;8.646;2023-08-20T07:46:10;8.80;;;5.57;;
49139;SDS011;34959;49.310;8.646;2023-08-20T07:48:36;10.95;;;5.88;;
49139;SDS011;34959;49.310;8.646;2023-08-20T07:51:01;9.75;;;6.13;;
49139;SDS011;34959;49.310;8.646;2023-08-20T07:53:28;7.57;;;5.40;;
49139;SDS011;34959;49.310;8.646;2023-08-20T07:55:53;8.43;;;5.20;;
49139;SDS011;34959;49.310;8.646;2023-08-20T07:58:18;7.53;;;5.32;;
49139;SDS011;34959;49.310;8.646;2023-08-20T08:00:44;5.95;;;5.20;;
49139;SDS011;34959;49.310;8.646;2023-08-20T08:03:09;9.27;;;5.40;;
49139;SDS011;34959;49.310;8.646;2023-08-20T08:05:35;9.27;;;5.28;;
49139;SDS011;34959;49.310;8.646;2023-08-20T08:08:01;7.40;;;4.90;;
49139;SDS011;34959;49.310;8.646;2023-08-20T08:10:27;7.07;;;5.03;;
49139;SDS011;34959;49.310;8.646;2023-08-20T08:12:53;7.30;;;5.15;;
49139;SDS011;34959;49.310;8.646;2023-08-20T08:15:18;7.20;;;5.20;;
49139;SDS011;34959;49.310;8.646;2023-08-20T08:17:44;5.32;;;4.80;;
49139;SDS011;34959;49.310;8.646;2023-08-20T08:20:09;7.80;;;5.05;;
49139;SDS011;34959;49.310;8.646;2023-08-20T08:22:35;6.75;;;4.65;;
49139;SDS011;34959;49.310;8.646;2023-08-20T08:25:00;7.35;;;5.30;;
49139;SDS011;34959;49.310;8.646;2023-08-20T08:27:26;6.95;;;4.95;;
49139;SDS011;34959;49.310;8.646;2023-08-20T08:29:51;5.88;;;4.72;;
49139;SDS011;34959;49.310;8.646;2023-08-20T08:32:16;8.02;;;5.25;;
49139;SDS011;34959;49.310;8.646;2023-08-20T08:34:42;6.70;;;4.90;;
49139;SDS011;34959;49.310;8.646;2023-08-20T08:37:07;5.70;;;4.57;;
49139;SDS011;34959;49.310;8.646;2023-08-20T08:39:33;5.95;;;4.80;;
49139;SDS011;34959;49.310;8.646;2023-08-20T08:42:00;6.65;;;4.57;;
49139;SDS011;34959;49.310;8.646;2023-08-20T08:44:29;7.57;;;4.97;;
49139;SDS011;34959;49.310;8.646;2023-08-20T08:46:57;10.68;;;4.80;;
49139;SDS011;34959;49.310;8.646;2023-08-20T08:49:22;5.97;;;4.80;;
49139;SDS011;34959;49.310;8.646;2023-08-20T08:51:48;6.97;;;4.93;;
49139;SDS011;34959;49.310;8.646;2023-08-20T08:54:13;6.93;;;4.47;;
49139;SDS011;34959;49.310;8.646;2023-08-20T08:56:39;5.53;;;4.57;;
49139;SDS011;34959;49.310;8.646;2023-08-20T08:59:05;7.75;;;4.63;;
49139;SDS011;34959;49.310;8.646;2023-08-20T09:01:30;5.75;;;5.05;;
49139;SDS011;34959;49.310;8.646;2023-08-20T09:03:56;5.18;;;4.63;;
49139;SDS011;34959;49.310;8.646;2023-08-20T09:06:22;5.45;;;4.18;;
49139;SDS011;34959;49.310;8.646;2023-08-20T09:08:47;5.85;;;4.82;;
49139;SDS011;34959;49.310;8.646;2023-08-20T09:11:12;7.53;;;4.82;;
49139;SDS011;34959;49.310;8.646;2023-08-20T09:13:39;5.00;;;4.07;;
49139;SDS011;34959;49.310;8.646;2023-08-20T09:16:05;5.00;;;4.47;;
49139;SDS011;34959;49.310;8.646;2023-08-20T09:18:38;6.25;;;5.10;;
49139;SDS011;34959;49.310;8.646;2023-08-20T09:21:08;6.30;;;4.50;;
49139;SDS011;34959;49.310;8.646;2023-08-20T09:23:34;7.28;;;4.50;;
49139;SDS011;34959;49.310;8.646;2023-08-20T09:26:03;5.55;;;4.75;;
49139;SDS011;34959;49.310;8.646;2023-08-20T09:28:41;5.73;;;4.37;;
49139;SDS011;34959;49.310;8.646;2023-08-20T09:31:10;5.28;;;4.45;;
49139;SDS011;34959;49.310;8.646;2023-08-20T09:33:36;6.65;;;4.35;;
49139;SDS011;34959;49.310;8.646;2023-08-20T09:36:04;5.20;;;4.28;;
49139;SDS011;34959;49.310;8.646;2023-08-20T09:38:30;5.55;;;4.72;;
49139;SDS011;34959;49.310;8.646;2023-08-20T09:41:03;12.65;;;4.70;;
49139;SDS011;34959;49.310;8.646;2023-08-20T09:43:29;5.32;;;4.47;;
49139;SDS011;34959;49.310;8.646;2023-08-20T09:45:56;5.32;;;4.13;;
49139;SDS011;34959;49.310;8.646;2023-08-20T09:48:22;5.00;;;4.35;;
49139;SDS011;34959;49.310;8.646;2023-08-20T09:50:51;6.13;;;4.57;;
49139;SDS011;34959;49.310;8.646;2023-08-20T09:53:27;5.78;;;4.20;;
49139;SDS011;34959;49.310;8.646;2023-08-20T09:56:02;5.05;;;4.45;;
49139;SDS011;34959;49.310;8.646;2023-08-20T09:58:31;6.28;;;4.38;;
49139;SDS011;34959;49.310;8.646;2023-08-20T10:00:57;5.35;;;4.32;;
49139;SDS011;34959;49.310;8.646;2023-08-20T10:03:22;6.70;;;4.07;;
49139;SDS011;34959;49.310;8.646;2023-08-20T10:05:48;5.35;;;4.47;;
49139;SDS011;34959;49.310;8.646;2023-08-20T10:08:14;5.30;;;4.30;;
49139;SDS011;34959;49.310;8.646;2023-08-20T10:10:40;6.00;;;4.40;;
49139;SDS011;34959;49.310;8.646;2023-08-20T10:13:05;5.78;;;4.13;;
49139;SDS011;34959;49.310;8.646;2023-08-20T10:15:31;5.60;;;4.35;;
49139;SDS011;34959;49.310;8.646;2023-08-20T10:17:58;4.68;;;4.22;;
49139;SDS011;34959;49.310;8.646;2023-08-20T10:20:24;6.45;;;4.40;;
49139;SDS011;34959;49.310;8.646;2023-08-20T10:22:55;6.43;;;4.55;;
49139;SDS011;34959;49.310;8.646;2023-08-20T10:25:25;6.72;;;4.38;;
49139;SDS011;34959;49.310;8.646;2023-08-20T10:27:51;4.60;;;3.95;;
49139;SDS011;34959;49.310;8.646;2023-08-20T10:30:26;4.80;;;3.92;;
49139;SDS011;34959;49.310;8.646;2023-08-20T10:32:53;5.07;;;4.25;;
49139;SDS011;34959;49.310;8.646;2023-08-20T10:35:23;5.88;;;4.70;;
49139;SDS011;34959;49.310;8.646;2023-08-20T10:38:11;4.93;;;4.13;;
49139;SDS011;34959;49.310;8.646;2023-08-20T10:46:02;6.22;;;4.25;;
49139;SDS011;34959;49.310;8.646;2023-08-20T10:48:41;5.32;;;4.47;;
49139;SDS011;34959;49.310;8.646;2023-08-20T10:54:02;5.07;;;4.00;;
49139;SDS011;34959;49.310;8.646;2023-08-20T10:56:43;4.20;;;3.80;;
49139;SDS011;34959;49.310;8.646;2023-08-20T10:59:13;6.78;;;4.10;;
49139;SDS011;34959;49.310;8.646;2023-08-20T11:01:40;4.35;;;3.95;;
49139;SDS011;34959;49.310;8.646;2023-08-20T11:04:08;6.07;;;4.28;;
49139;SDS011;34959;49.310;8.646;2023-08-20T11:06:34;6.03;;;4.28;;
49139;SDS011;34959;49.310;8.646;2023-08-20T11:08:59;5.90;;;4.10;;
49139;SDS011;34959;49.310;8.646;2023-08-20T11:11:25;7.35;;;4.80;;
49139;SDS011;34959;49.310;8.646;2023-08-20T11:13:50;5.00;;;4.47;;
49139;SDS011;34959;49.310;8.646;2023-08-20T11:16:16;5.50;;;4.40;;
49139;SDS011;34959;49.310;8.646;2023-08-20T11:18:41;5.97;;;4.43;;
49139;SDS011;34959;49.310;8.646;2023-08-20T11:21:07;4.35;;;3.95;;
49139;SDS011;34959;49.310;8.646;2023-08-20T11:23:33;5.93;;;4.50;;
49139;SDS011;34959;49.310;8.646;2023-08-20T11:25:59;6.43;;;4.65;;
49139;SDS011;34959;49.310;8.646;2023-08-20T11:28:25;5.68;;;4.18;;
49139;SDS011;34959;49.310;8.646;2023-08-20T11:30:52;5.78;;;4.43;;
49139;SDS011;34959;49.310;8.646;2023-08-20T11:33:18;5.65;;;4.13;;
49139;SDS011;34959;49.310;8.646;2023-08-20T11:35:43;5.25;;;4.13;;
49139;SDS011;34959;49.310;8.646;2023-08-20T11:38:09;6.32;;;4.60;;
49139;SDS011;34959;49.310;8.646;2023-08-20T11:40:36;4.78;;;3.88;;
49139;SDS011;34959;49.310;8.646;2023-08-20T11:43:01;7.75;;;4.40;;
49139;SDS011;34959;49.310;8.646;2023-08-20T11:45:27;6.03;;;4.20;;
49139;SDS011;34959;49.310;8.646;2023-08-20T11:47:56;5.05;;;4.38;;
49139;SDS011;34959;49.310;8.646;2023-08-20T11:50:23;4.75;;;4.28;;
49139;SDS011;34959;49.310;8.646;2023-08-20T11:52:48;6.82;;;4.85;;
49139;SDS011;34959;49.310;8.646;2023-08-20T11:55:14;5.38;;;4.28;;
49139;SDS011;34959;49.310;8.646;2023-08-20T11:57:39;5.32;;;4.05;;
49139;SDS011;34959;49.310;8.646;2023-08-20T12:00:05;6.25;;;4.68;;
49139;SDS011;34959;49.310;8.646;2023-08-20T12:02:36;4.78;;;4.07;;
49139;SDS011;34959;49.310;8.646;2023-08-20T12:05:01;4.75;;;3.83;;
49139;SDS011;34959;49.310;8.646;2023-08-20T12:07:28;4.47;;;4.07;;
49139;SDS011;34959;49.310;8.646;2023-08-20T12:09:54;5.13;;;4.07;;
49139;SDS011;34959;49.310;8.646;2023-08-20T12:12:20;4.97;;;4.22;;
49139;SDS011;34959;49.310;8.646;2023-08-20T12:14:46;5.32;;;3.95;;
49139;SDS011;34959;49.310;8.646;2023-08-20T12:17:12;4.45;;;4.00;;
49139;SDS011;34959;49.310;8.646;2023-08-20T12:19:37;4.82;;;4.10;;
49139;SDS011;34959;49.310;8.646;2023-08-20T12:22:03;4.68;;;4.05;;
49139;SDS011;34959;49.310;8.646;2023-08-20T12:24:29;5.72;;;4.45;;
49139;SDS011;34959;49.310;8.646;2023-08-20T12:26:54;5.75;;;4.53;;
49139;SDS011;34959;49.310;8.646;2023-08-20T12:29:20;5.40;;;4.43;;
49139;SDS011;34959;49.310;8.646;2023-08-20T12:31:45;5.35;;;4.30;;
49139;SDS011;34959;49.310;8.646;2023-08-20T12:34:11;5.70;;;4.40;;
49139;SDS011;34959;49.310;8.646;2023-08-20T12:36:36;5.72;;;4.25;;
49139;SDS011;34959;49.310;8.646;2023-08-20T12:39:02;4.63;;;4.03;;
49139;SDS011;34959;49.310;8.646;2023-08-20T12:41:29;4.30;;;3.90;;
49139;SDS011;34959;49.310;8.646;2023-08-20T12:43:54;4.70;;;4.05;;
49139;SDS011;34959;49.310;8.646;2023-08-20T12:46:20;5.68;;;4.45;;
49139;SDS011;34959;49.310;8.646;2023-08-20T12:48:45;5.68;;;4.18;;
49139;SDS011;34959;49.310;8.646;2023-08-20T12:51:11;4.47;;;3.80;;
49139;SDS011;34959;49.310;8.646;2023-08-20T12:53:39;6.03;;;4.30;;
49139;SDS011;34959;49.310;8.646;2023-08-20T12:56:04;5.68;;;4.38;;
49139;SDS011;34959;49.310;8.646;2023-08-20T12:58:30;4.72;;;4.05;;
49139;SDS011;34959;49.310;8.646;2023-08-20T13:00:55;4.53;;;4.13;;
49139;SDS011;34959;49.310;8.646;2023-08-20T13:03:21;4.18;;;3.78;;
49139;SDS011;34959;49.310;8.646;2023-08-20T13:05:46;4.28;;;3.88;;
49139;SDS011;34959;49.310;8.646;2023-08-20T13:08:12;4.43;;;4.03;;
49139;SDS011;34959;49.310;8.646;2023-08-20T13:10:41;4.95;;;4.18;;
49139;SDS011;34959;49.310;8.646;2023-08-20T13:13:09;5.28;;;4.38;;
49139;SDS011;34959;49.310;8.646;2023-08-20T13:15:35;4.60;;;3.83;;
49139;SDS011;34959;49.310;8.646;2023-08-20T13:18:01;4.85;;;4.03;;
49139;SDS011;34959;49.310;8.646;2023-08-20T13:20:27;5.10;;;4.10;;
49139;SDS011;34959;49.310;8.646;2023-08-20T13:22:52;3.78;;;3.38;;
49139;SDS011;34959;49.310;8.646;2023-08-20T13:25:18;4.35;;;3.95;;
49139;SDS011;34959;49.310;8.646;2023-08-20T13:27:43;4.20;;;3.80;;
49139;SDS011;34959;49.310;8.646;2023-08-20T13:30:10;5.05;;;3.85;;
49139;SDS011;34959;49.310;8.646;2023-08-20T13:32:36;4.93;;;4.07;;
49139;SDS011;34959;49.310;8.646;2023-08-20T13:35:01;7.00;;;3.90;;
49139;SDS011;34959;49.310;8.646;2023-08-20T13:37:29;4.90;;;4.20;;
49139;SDS011;34959;49.310;8.646;2023-08-20T13:39:56;5.50;;;3.70;;
49139;SDS011;34959;49.310;8.646;2023-08-20T13:42:21;4.38;;;3.85;;
49139;SDS011;34959;49.310;8.646;2023-08-20T13:44:47;5.07;;;3.65;;
49139;SDS011;34959;49.310;8.646;2023-08-20T13:47:12;4.53;;;3.90;;
49139;SDS011;34959;49.310;8.646;2023-08-20T13:49:37;4.10;;;3.65;;
49139;SDS011;34959;49.310;8.646;2023-08-20T13:52:03;4.43;;;3.70;;
49139;SDS011;34959;49.310;8.646;2023-08-20T13:54:28;3.60;;;3.25;;
49139;SDS011;34959;49.310;8.646;2023-08-20T13:56:54;4.28;;;3.80;;
49139;SDS011;34959;49.310;8.646;2023-08-20T13:59:19;4.47;;;3.80;;
49139;SDS011;34959;49.310;8.646;2023-08-20T14:01:45;6.38;;;3.65;;
49139;SDS011;34959;49.310;8.646;2023-08-20T14:04:10;4.07;;;3.58;;
49139;SDS011;34959;49.310;8.646;2023-08-20T14:06:35;4.20;;;3.78;;
49139;SDS011;34959;49.310;8.646;2023-08-20T14:09:01;4.10;;;3.70;;
49139;SDS011;34959;49.310;8.646;2023-08-20T14:11:27;3.63;;;3.33;;
49139;SDS011;34959;49.310;8.646;2023-08-20T14:13:53;4.10;;;3.63;;
49139;SDS011;34959;49.310;8.646;2023-08-20T14:16:18;4.25;;;3.58;;
49139;SDS011;34959;49.310;8.646;2023-08-20T14:18:43;4.50;;;3.83;;
49139;SDS011;34959;49.310;8.646;2023-08-20T14:21:09;3.33;;;3.03;;
49139;SDS011;34959;49.310;8.646;2023-08-20T14:23:34;3.45;;;3.15;;
49139;SDS011;34959;49.310;8.646;2023-08-20T14:26:00;4.10;;;3.40;;
49139;SDS011;34959;49.310;8.646;2023-08-20T14:28:25;3.78;;;3.25;;
49139;SDS011;34959;49.310;8.646;2023-08-20T14:30:51;3.70;;;3.40;;
49139;SDS011;34959;49.310;8.646;2023-08-20T14:33:18;3.47;;;3.17;;
49139;SDS011;34959;49.310;8.646;2023-08-20T14:35:44;3.70;;;3.40;;
49139;SDS011;34959;49.310;8.646;2023-08-20T14:38:10;3.95;;;3.53;;
49139;SDS011;34959;49.310;8.646;2023-08-20T14:40:36;3.38;;;3.08;;
49139;SDS011;34959;49.310;8.646;2023-08-20T14:43:04;3.63;;;3.33;;
49139;SDS011;34959;49.310;8.646;2023-08-20T14:45:30;3.10;;;2.80;;
49139;SDS011;34959;49.310;8.646;2023-08-20T14:47:55;3.72;;;2.92;;
49139;SDS011;34959;49.310;8.646;2023-08-20T14:50:21;3.70;;;3.40;;
49139;SDS011;34959;49.310;8.646;2023-08-20T14:52:46;3.72;;;3.15;;